This is the latest recevied weather packets stored in our database for station/object KF7SOJ. If no packets are shown the sender has not sent any weather packets the latest 10 day(s).
| Time | Temp. | Humidity | Pressure | Rain* | Wind** | Luminosity | Snow |
|---|---|---|---|---|---|---|---|
| 1787907209 | 18.89° C | 60% | 930.8 hPa | 0 mm | - | 0 W/m² | - |
| 1787906905 | 19.44° C | 60% | 930.7 hPa | 0 mm | - | 0 W/m² | - |
| 1787906601 | 19.44° C | 60% | 930.8 hPa | 0 mm | - | 0 W/m² | - |
| 1787906301 | 19.44° C | 59% | 930.9 hPa | 0 mm | - | 0 W/m² | - |
| 1787906001 | 20° C | 58% | 930.8 hPa | 0 mm | - | 0 W/m² | - |
| 1787905696 | 21.11° C | 55% | 930.6 hPa | 0 mm | - | 0 W/m² | - |
| 1787905393 | 21.11° C | 54% | 930.5 hPa | 0 mm | - | 0 W/m² | - |
| 1787905088 | 21.11° C | 55% | 930.3 hPa | 0 mm | - | 0 W/m² | - |
| 1787904783 | 21.11° C | 55% | 930.4 hPa | 0 mm | - | 0 W/m² | - |
| 1787904479 | 21.11° C | 55% | 930.4 hPa | 0 mm | - | 0 W/m² | - |
| 1787904179 | 21.67° C | 53% | 930.3 hPa | 0 mm | - | 0 W/m² | - |
| 1787903874 | 21.11° C | 55% | 930.4 hPa | 0 mm | - | 0 W/m² | - |
| 1787903571 | 21.11° C | 57% | 930.5 hPa | 0 mm | - | 0 W/m² | - |
| 1787903271 | 21.11° C | 55% | 930.3 hPa | 0 mm | - | 0 W/m² | - |
| 1787902967 | 21.11° C | 57% | 930.3 hPa | 0 mm | - | 0 W/m² | - |
| 1787902663 | 20.56° C | 58% | 930.3 hPa | 0 mm | - | 0 W/m² | - |
| 1787902358 | 20.56° C | 58% | 930.2 hPa | 0 mm | - | 0 W/m² | - |
| 1787902054 | 21.11° C | 57% | 930.3 hPa | 0 mm | - | 0 W/m² | - |
| 1787901749 | 21.11° C | 56% | 930.5 hPa | 0 mm | - | 0 W/m² | - |
| 1787901445 | 21.11° C | 56% | 930.4 hPa | 0 mm | - | 0 W/m² | - |
| 1787901141 | 21.11° C | 58% | 930.6 hPa | 0 mm | - | 0 W/m² | - |
| 1787900840 | 21.11° C | 58% | 930.6 hPa | 0 mm | - | 0 W/m² | - |
| 1787900536 | 21.11° C | 56% | 930.5 hPa | 0 mm | - | 0 W/m² | - |
| 1787900236 | 20.56° C | 58% | 930.5 hPa | 0 mm | - | 0 W/m² | - |
| 1787899936 | 20.56° C | 61% | 930.7 hPa | 0 mm | - | 0 W/m² | - |
* Rain latest hour (hover to see other rain measurements)
** Current wind speed in m/s (hover to see current wind gust speed)